createdAt,value
2018-05-08T00:00:59.225Z,49.80
2018-05-08T00:03:25.444Z,49.80
2018-05-08T00:05:52.418Z,49.80
2018-05-08T00:08:18.645Z,49.80
2018-05-08T00:10:44.819Z,49.80
2018-05-08T00:13:11.033Z,50.00
2018-05-08T00:15:37.261Z,49.90
2018-05-08T00:18:04.215Z,49.70
2018-05-08T00:20:30.452Z,49.70
2018-05-08T00:22:56.661Z,49.70
2018-05-08T00:25:22.908Z,49.50
2018-05-08T00:27:49.874Z,49.50
2018-05-08T00:30:16.066Z,49.50
2018-05-08T00:32:43.017Z,49.40
2018-05-08T00:35:09.968Z,49.50
2018-05-08T00:37:36.156Z,49.40
2018-05-08T00:40:03.117Z,49.50
2018-05-08T00:42:29.387Z,49.40
2018-05-08T00:44:55.607Z,49.40
2018-05-08T00:47:21.825Z,49.40
2018-05-08T00:49:48.050Z,49.40
2018-05-08T00:52:14.244Z,49.40
2018-05-08T00:54:40.486Z,49.40
2018-05-08T00:57:06.723Z,49.30
2018-05-08T00:59:32.951Z,49.30
2018-05-08T01:01:59.930Z,49.30
2018-05-08T01:04:26.166Z,49.30
2018-05-08T01:06:52.374Z,49.30
2018-05-08T01:09:18.586Z,48.80
2018-05-08T01:11:44.805Z,49.30
2018-05-08T01:14:11.792Z,49.80
2018-05-08T01:16:38.081Z,49.20
2018-05-08T01:19:04.283Z,49.20
2018-05-08T01:21:31.227Z,49.20
2018-05-08T01:23:57.456Z,49.20
2018-05-08T01:26:23.671Z,49.20
2018-05-08T01:28:49.885Z,49.20
2018-05-08T01:31:16.093Z,49.10
2018-05-08T01:33:42.331Z,49.50
2018-05-08T01:36:09.269Z,50.20
2018-05-08T01:38:35.475Z,50.20
2018-05-08T01:41:01.714Z,50.00
2018-05-08T01:43:27.914Z,49.90
2018-05-08T01:45:54.113Z,49.90
2018-05-08T01:48:20.325Z,49.90
2018-05-08T01:50:46.537Z,49.90
2018-05-08T01:53:13.487Z,50.40
2018-05-08T01:55:39.715Z,49.90
2018-05-08T01:58:05.972Z,49.90
2018-05-08T02:00:32.191Z,49.90
2018-05-08T02:02:58.383Z,49.90
2018-05-08T02:05:24.636Z,49.60
2018-05-08T02:07:50.876Z,49.50
2018-05-08T02:10:17.113Z,49.60
2018-05-08T02:12:43.336Z,49.60
2018-05-08T02:15:09.549Z,49.60
2018-05-08T02:17:35.791Z,49.50
2018-05-08T02:20:02.067Z,49.40
2018-05-08T02:22:28.998Z,49.50
2018-05-08T02:24:55.213Z,49.40
2018-05-08T02:27:22.171Z,49.50
2018-05-08T02:29:48.498Z,49.40
2018-05-08T02:32:14.755Z,49.60
2018-05-08T02:34:40.964Z,49.30
2018-05-08T02:37:07.199Z,49.30
2018-05-08T02:39:33.398Z,49.40
2018-05-08T02:42:00.337Z,49.30
2018-05-08T02:44:27.330Z,49.90
2018-05-08T02:46:54.285Z,49.30
2018-05-08T02:49:21.263Z,49.30
2018-05-08T02:51:47.495Z,49.30
2018-05-08T02:54:13.685Z,49.30
2018-05-08T02:56:39.901Z,49.30
2018-05-08T02:59:06.080Z,49.30
2018-05-08T03:01:33.048Z,49.30
2018-05-08T03:03:59.241Z,49.20
2018-05-08T03:06:25.440Z,49.30
2018-05-08T03:08:52.390Z,49.30
2018-05-08T03:11:19.329Z,49.30
2018-05-08T03:13:46.286Z,49.30
2018-05-08T03:16:12.539Z,49.20
2018-05-08T03:18:38.782Z,49.30
2018-05-08T03:21:04.988Z,49.30
2018-05-08T03:23:31.178Z,49.30
2018-05-08T03:25:57.474Z,49.30
2018-05-08T03:28:24.432Z,49.30
2018-05-08T03:30:51.382Z,49.30
2018-05-08T03:33:17.580Z,49.90
2018-05-08T03:35:43.864Z,49.30
2018-05-08T03:38:10.104Z,49.20
2018-05-08T03:40:36.356Z,49.20
2018-05-08T03:43:02.636Z,49.30
2018-05-08T03:45:28.853Z,49.10
2018-05-08T03:47:55.119Z,49.10
2018-05-08T03:50:22.076Z,49.20
2018-05-08T03:52:48.283Z,49.20
2018-05-08T03:55:14.479Z,49.20
2018-05-08T03:57:40.670Z,49.20
2018-05-08T04:00:06.934Z,49.10
2018-05-08T04:02:33.907Z,49.10
2018-05-08T04:05:07.096Z,49.00
2018-05-08T04:07:33.302Z,49.10
2018-05-08T04:09:59.497Z,49.00
2018-05-08T04:12:25.708Z,49.00
2018-05-08T04:14:51.892Z,49.10
2018-05-08T04:17:18.110Z,49.00
2018-05-08T04:19:44.338Z,49.10
2018-05-08T04:22:11.167Z,49.00
2018-05-08T04:24:38.140Z,48.90
2018-05-08T04:27:05.090Z,48.90
2018-05-08T04:29:32.104Z,48.90
2018-05-08T04:31:58.317Z,48.90
2018-05-08T04:34:24.540Z,48.90
2018-05-08T04:36:50.768Z,48.90
2018-05-08T04:39:17.151Z,48.90
2018-05-08T04:41:43.347Z,48.80
2018-05-08T04:44:10.297Z,49.30
2018-05-08T04:46:36.536Z,49.20
2018-05-08T04:49:02.749Z,49.40
2018-05-08T04:51:29.722Z,49.60
2018-05-08T04:53:55.923Z,49.60
2018-05-08T04:56:22.132Z,49.90
2018-05-08T04:58:48.352Z,49.50
2018-05-08T05:01:14.584Z,49.70
2018-05-08T05:03:40.789Z,49.30
2018-05-08T05:06:06.983Z,49.40
2018-05-08T05:08:33.177Z,49.20
2018-05-08T05:10:59.398Z,49.40
2018-05-08T05:13:25.611Z,49.40
2018-05-08T05:15:51.810Z,49.50
2018-05-08T05:18:17.999Z,53.10
2018-05-08T05:20:44.928Z,51.90
2018-05-08T05:23:11.130Z,51.90
2018-05-08T05:25:37.341Z,52.40
2018-05-08T05:28:04.271Z,50.20
2018-05-08T05:30:30.614Z,50.10
2018-05-08T05:32:56.854Z,50.00
2018-05-08T05:35:23.074Z,50.20
2018-05-08T05:37:50.062Z,50.30
2018-05-08T05:40:16.304Z,50.20
2018-05-08T05:42:43.196Z,49.90
2018-05-08T05:45:09.396Z,49.90
2018-05-08T05:47:35.606Z,49.60
2018-05-08T05:50:02.536Z,50.50
2018-05-08T05:52:28.846Z,50.50
2018-05-08T05:54:55.841Z,50.00
2018-05-08T05:57:22.776Z,49.70
2018-05-08T05:59:49.746Z,49.50
2018-05-08T06:02:15.972Z,49.50
2018-05-08T06:04:42.181Z,49.50
2018-05-08T06:07:08.379Z,49.10
2018-05-08T06:09:34.653Z,49.00
2018-05-08T06:12:00.885Z,48.90
2018-05-08T06:14:27.059Z,48.70
2018-05-08T06:16:54.003Z,48.10
2018-05-08T06:19:20.245Z,48.00
2018-05-08T06:21:46.611Z,48.00
2018-05-08T06:24:12.895Z,47.90
2018-05-08T06:26:39.787Z,47.80
2018-05-08T06:29:06.167Z,47.60
2018-05-08T06:31:33.041Z,47.60
2018-05-08T06:33:59.447Z,47.40
2018-05-08T06:36:25.779Z,47.20
2018-05-08T06:38:52.777Z,47.10
2018-05-08T06:41:19.689Z,47.20
2018-05-08T06:43:46.094Z,47.10
2018-05-08T06:46:13.252Z,46.80
2018-05-08T06:48:39.579Z,46.60
2018-05-08T06:51:06.519Z,46.60
2018-05-08T06:53:32.761Z,46.60
2018-05-08T06:55:59.011Z,46.60
2018-05-08T06:58:25.237Z,46.60
2018-05-08T07:00:51.433Z,46.60
2018-05-08T07:03:18.458Z,47.10
2018-05-08T07:05:45.405Z,46.40
2018-05-08T07:08:11.636Z,46.40
2018-05-08T07:10:38.609Z,46.30
2018-05-08T07:13:05.561Z,46.30
2018-05-08T07:15:31.777Z,46.30
2018-05-08T07:17:58.704Z,46.90
2018-05-08T07:20:26.431Z,46.10
2018-05-08T07:22:52.647Z,46.20
2018-05-08T07:25:18.879Z,46.10
2018-05-08T07:27:45.148Z,46.20
2018-05-08T07:30:12.122Z,46.60
2018-05-08T07:32:39.137Z,46.10
2018-05-08T07:35:06.136Z,46.10
2018-05-08T07:37:32.349Z,46.00
2018-05-08T07:39:58.539Z,45.90
2018-05-08T07:42:24.771Z,46.00
2018-05-08T07:44:51.003Z,45.90
2018-05-08T07:47:17.231Z,46.10
2018-05-08T07:49:43.457Z,45.90
2018-05-08T07:52:09.698Z,45.80
2018-05-08T07:54:35.922Z,45.60
2018-05-08T07:57:02.161Z,45.50
2018-05-08T07:59:28.356Z,45.70
2018-05-08T08:01:55.299Z,45.70
2018-05-08T08:04:21.555Z,45.60
2018-05-08T08:06:48.496Z,45.70
2018-05-08T08:09:15.440Z,45.80
2018-05-08T08:11:42.381Z,45.80
2018-05-08T08:14:09.332Z,45.50
2018-05-08T08:16:35.550Z,45.50
2018-05-08T08:19:01.784Z,45.70
2018-05-08T08:21:28.747Z,45.10
2018-05-08T08:23:55.767Z,45.60
2018-05-08T08:26:22.290Z,45.50
2018-05-08T08:28:49.263Z,45.50
2018-05-08T08:31:15.564Z,45.60
2018-05-08T08:33:42.489Z,45.60
2018-05-08T08:36:08.896Z,45.60
2018-05-08T08:38:35.097Z,45.50
2018-05-08T08:41:01.295Z,45.60
2018-05-08T08:43:27.524Z,45.50
2018-05-08T08:45:58.774Z,45.80
2018-05-08T08:48:25.002Z,45.70
2018-05-08T08:50:51.192Z,45.90
2018-05-08T08:53:17.383Z,45.70
2018-05-08T08:55:44.061Z,45.80
2018-05-08T08:58:10.287Z,45.80
2018-05-08T09:00:36.511Z,45.80
2018-05-08T09:03:02.735Z,45.80
2018-05-08T09:05:28.967Z,45.70
2018-05-08T09:07:55.269Z,45.80
2018-05-08T09:10:21.574Z,45.90
2018-05-08T09:12:48.567Z,46.00
2018-05-08T09:15:14.801Z,45.90
2018-05-08T09:17:41.742Z,45.70
2018-05-08T09:20:07.953Z,45.70
2018-05-08T09:22:34.157Z,45.70
2018-05-08T09:25:00.345Z,45.80
2018-05-08T09:27:26.616Z,45.40
2018-05-08T09:29:52.846Z,45.90
2018-05-08T09:32:19.071Z,46.00
2018-05-08T09:34:45.300Z,45.90
2018-05-08T09:37:11.553Z,46.00
2018-05-08T09:39:38.879Z,46.10
2018-05-08T09:42:05.133Z,46.10
2018-05-08T09:44:31.351Z,46.10
2018-05-08T09:46:57.644Z,46.10
2018-05-08T09:49:24.568Z,46.10
2018-05-08T09:51:50.797Z,46.10
2018-05-08T09:54:17.064Z,46.00
2018-05-08T09:56:43.225Z,46.00
2018-05-08T09:59:09.447Z,46.00
2018-05-08T10:01:35.718Z,46.00
2018-05-08T10:04:02.689Z,46.30
2018-05-08T10:06:28.967Z,46.00
2018-05-08T10:08:55.197Z,46.30
2018-05-08T10:11:21.480Z,46.20
2018-05-08T10:13:47.762Z,46.30
2018-05-08T10:16:14.712Z,46.40
2018-05-08T10:18:40.934Z,46.30
2018-05-08T10:21:07.211Z,46.20
2018-05-08T10:23:33.438Z,46.30
2018-05-08T10:25:59.682Z,46.30
2018-05-08T10:28:25.886Z,46.30
2018-05-08T10:30:52.072Z,46.30
2018-05-08T10:33:18.274Z,46.30
2018-05-08T10:35:45.224Z,46.30
2018-05-08T10:38:12.140Z,46.30
2018-05-08T10:40:38.424Z,46.30
2018-05-08T10:43:04.683Z,46.30
2018-05-08T10:45:30.907Z,46.30
2018-05-08T10:47:57.126Z,46.30
2018-05-08T10:50:23.357Z,46.30
2018-05-08T10:52:49.545Z,46.30
2018-05-08T10:55:15.729Z,46.30
2018-05-08T10:57:41.926Z,46.30
2018-05-08T11:00:08.167Z,46.30
2018-05-08T11:02:34.384Z,46.90
2018-05-08T11:05:01.351Z,46.30
2018-05-08T11:07:27.583Z,46.30
2018-05-08T11:09:53.794Z,46.30
2018-05-08T11:12:20.054Z,46.30
2018-05-08T11:14:46.244Z,46.30
2018-05-08T11:17:12.452Z,46.30
2018-05-08T11:19:38.687Z,46.30
2018-05-08T11:22:04.966Z,46.40
2018-05-08T11:24:31.184Z,46.40
2018-05-08T11:26:57.349Z,46.50
2018-05-08T11:29:24.303Z,46.30
2018-05-08T11:31:50.575Z,46.30
2018-05-08T11:34:16.864Z,46.40
2018-05-08T11:36:43.068Z,46.30
2018-05-08T11:39:10.103Z,46.30
2018-05-08T11:41:37.012Z,46.30
2018-05-08T11:44:04.481Z,46.40
2018-05-08T11:46:30.718Z,46.30
2018-05-08T11:48:56.933Z,46.30
2018-05-08T11:51:23.175Z,46.30
2018-05-08T11:53:49.450Z,46.40
2018-05-08T11:56:18.422Z,46.90
2018-05-08T11:58:44.640Z,46.30
2018-05-08T12:01:10.870Z,46.30
2018-05-08T12:03:37.841Z,46.30
2018-05-08T12:06:04.115Z,46.40
2018-05-08T12:08:30.296Z,46.40
2018-05-08T12:10:56.586Z,46.40
2018-05-08T12:13:22.808Z,46.40
2018-05-08T12:15:49.734Z,47.00
2018-05-08T12:18:16.686Z,46.40
2018-05-08T12:20:42.925Z,46.40
2018-05-08T12:23:09.920Z,46.50
2018-05-08T12:25:36.230Z,46.40
2018-05-08T12:28:02.420Z,46.50
2018-05-08T12:30:28.632Z,46.50
2018-05-08T12:32:54.944Z,46.40
2018-05-08T12:35:21.171Z,46.50
2018-05-08T12:37:48.159Z,46.70
2018-05-08T12:40:14.399Z,46.40
2018-05-08T12:42:40.618Z,46.40
2018-05-08T12:45:06.823Z,46.40
2018-05-08T12:47:33.085Z,46.50
2018-05-08T12:49:59.380Z,46.50
2018-05-08T12:52:25.571Z,46.60
2018-05-08T12:54:52.511Z,46.50
2018-05-08T12:57:18.733Z,47.00
2018-05-08T12:59:44.959Z,46.40
2018-05-08T13:02:11.193Z,46.40
2018-05-08T13:04:37.466Z,46.40
2018-05-08T13:07:03.660Z,46.40
2018-05-08T13:09:29.863Z,46.50
2018-05-08T13:11:56.944Z,46.40
2018-05-08T13:14:23.095Z,46.30
2018-05-08T13:16:49.323Z,46.50
2018-05-08T13:19:15.619Z,46.50
2018-05-08T13:21:41.981Z,46.40
2018-05-08T13:24:09.059Z,46.70
2018-05-08T13:26:36.044Z,46.40
2018-05-08T13:29:02.260Z,46.40
2018-05-08T13:31:28.576Z,46.40
2018-05-08T13:33:54.837Z,46.50
2018-05-08T13:36:21.355Z,46.50
2018-05-08T13:38:47.575Z,46.50
2018-05-08T13:41:14.527Z,46.50
2018-05-08T13:43:40.797Z,46.40
2018-05-08T13:46:07.307Z,46.40
2018-05-08T13:48:33.537Z,46.50
2018-05-08T13:50:59.749Z,46.70
2018-05-08T13:53:25.964Z,46.50
2018-05-08T13:55:52.177Z,46.50
2018-05-08T13:58:18.612Z,46.40
2018-05-08T14:00:44.688Z,46.50
2018-05-08T14:03:10.905Z,46.50
2018-05-08T14:05:38.043Z,47.50
2018-05-08T14:08:04.232Z,47.90
2018-05-08T14:10:30.432Z,47.30
2018-05-08T14:12:56.677Z,47.80
2018-05-08T14:15:22.896Z,47.70
2018-05-08T14:17:49.892Z,47.80
2018-05-08T14:20:16.158Z,47.70
2018-05-08T14:22:42.429Z,47.70
2018-05-08T14:25:08.689Z,47.80
2018-05-08T14:27:34.907Z,47.60
2018-05-08T14:30:01.120Z,47.60
2018-05-08T14:32:27.296Z,47.50
2018-05-08T14:34:53.505Z,47.50
2018-05-08T14:37:19.724Z,47.50
2018-05-08T14:39:45.955Z,47.40
2018-05-08T14:42:12.148Z,47.30
2018-05-08T14:44:38.354Z,47.30
2018-05-08T14:47:04.540Z,47.30
2018-05-08T14:49:30.780Z,47.20
2018-05-08T14:51:56.981Z,47.20
2018-05-08T14:54:23.185Z,47.10
2018-05-08T14:56:50.170Z,46.90
2018-05-08T14:59:16.355Z,46.90
2018-05-08T15:01:43.303Z,46.90
2018-05-08T15:04:10.405Z,46.90
2018-05-08T15:06:37.390Z,46.80
2018-05-08T15:09:03.670Z,46.80
2018-05-08T15:11:29.948Z,46.90
2018-05-08T15:13:56.222Z,46.70
2018-05-08T15:16:22.468Z,46.80
2018-05-08T15:18:49.523Z,46.70
2018-05-08T15:21:15.916Z,46.70
2018-05-08T15:23:42.127Z,46.80
2018-05-08T15:26:08.801Z,46.80
2018-05-08T15:28:35.071Z,46.80
2018-05-08T15:31:01.297Z,46.70
2018-05-08T15:33:27.646Z,46.70
2018-05-08T15:35:53.761Z,46.60
2018-05-08T15:38:21.728Z,46.60
2018-05-08T15:40:48.272Z,46.70
2018-05-08T15:43:14.819Z,46.60
2018-05-08T15:45:41.968Z,46.70
2018-05-08T15:48:08.981Z,46.50
2018-05-08T15:50:35.423Z,46.50
2018-05-08T15:53:02.603Z,46.50
2018-05-08T15:55:28.809Z,46.50
2018-05-08T15:57:55.047Z,46.50
2018-05-08T16:00:21.279Z,46.50
2018-05-08T16:02:47.536Z,46.50
2018-05-08T16:05:13.801Z,46.50
2018-05-08T16:07:40.069Z,46.60
2018-05-08T16:10:06.283Z,46.60
2018-05-08T16:12:32.534Z,46.60
2018-05-08T16:14:58.782Z,46.40
2018-05-08T16:17:25.009Z,46.60
2018-05-08T16:19:51.253Z,46.50
2018-05-08T16:22:17.498Z,47.00
2018-05-08T16:24:43.722Z,46.40
2018-05-08T16:27:09.953Z,48.60
2018-05-08T16:29:36.199Z,48.90
2018-05-08T16:32:02.427Z,48.40
2018-05-08T16:34:28.643Z,48.10
2018-05-08T16:36:54.859Z,48.00
2018-05-08T16:39:21.172Z,47.80
2018-05-08T16:41:47.359Z,47.80
2018-05-08T16:44:13.585Z,47.80
2018-05-08T16:46:39.815Z,47.20
2018-05-08T16:49:06.037Z,47.00
2018-05-08T16:51:32.291Z,46.80
2018-05-08T16:53:58.610Z,47.20
2018-05-08T16:56:24.734Z,46.50
2018-05-08T16:58:51.023Z,46.60
2018-05-08T17:01:17.235Z,47.10
2018-05-08T17:03:43.408Z,46.60
2018-05-08T17:06:10.371Z,47.30
2018-05-08T17:08:37.313Z,46.80
2018-05-08T17:11:03.525Z,46.80
2018-05-08T17:13:29.747Z,46.90
2018-05-08T17:15:56.829Z,46.90
2018-05-08T17:18:23.061Z,47.00
2018-05-08T17:20:49.281Z,46.90
2018-05-08T17:23:15.545Z,46.90
2018-05-08T17:25:42.580Z,46.90
2018-05-08T17:28:08.757Z,46.90
2018-05-08T17:30:35.763Z,46.90
2018-05-08T17:33:01.996Z,46.90
2018-05-08T17:35:28.225Z,46.90
2018-05-08T17:37:54.469Z,46.90
2018-05-08T17:40:20.675Z,47.00
2018-05-08T17:42:46.917Z,47.90
2018-05-08T17:45:13.769Z,47.90
2018-05-08T17:47:40.074Z,48.00
2018-05-08T17:50:07.083Z,47.70
2018-05-08T17:52:34.064Z,48.00
2018-05-08T17:55:01.831Z,49.60
2018-05-08T17:57:28.069Z,49.60
2018-05-08T17:59:54.231Z,50.00
2018-05-08T18:02:21.195Z,50.60
2018-05-08T18:04:48.169Z,50.60
2018-05-08T18:07:14.424Z,50.60
2018-05-08T18:09:40.629Z,50.50
2018-05-08T18:12:06.812Z,50.20
2018-05-08T18:14:33.044Z,50.30
2018-05-08T18:16:59.281Z,49.90
2018-05-08T18:19:25.543Z,49.90
2018-05-08T18:21:51.797Z,49.40
2018-05-08T18:24:17.995Z,49.50
2018-05-08T18:26:44.190Z,49.30
2018-05-08T18:29:10.417Z,49.20
2018-05-08T18:31:36.707Z,49.00
2018-05-08T18:34:02.956Z,48.80
2018-05-08T18:36:29.201Z,48.70
2018-05-08T18:38:55.460Z,48.60
2018-05-08T18:41:21.676Z,48.30
2018-05-08T18:43:48.639Z,48.20
2018-05-08T18:46:14.832Z,48.20
2018-05-08T18:48:41.038Z,50.50
2018-05-08T18:51:07.244Z,51.20
2018-05-08T18:53:34.175Z,51.30
2018-05-08T18:56:00.415Z,51.30
2018-05-08T18:58:26.630Z,51.00
2018-05-08T19:00:54.908Z,50.80
2018-05-08T19:03:21.913Z,49.80
2018-05-08T19:05:48.123Z,49.80
2018-05-08T19:08:14.303Z,50.20
2018-05-08T19:10:40.500Z,50.30
2018-05-08T19:13:06.727Z,49.80
2018-05-08T19:15:39.128Z,49.60
2018-05-08T19:18:05.356Z,49.40
2018-05-08T19:20:31.611Z,49.60
2018-05-08T19:22:58.214Z,49.60
2018-05-08T19:25:27.431Z,49.50
2018-05-08T19:28:00.002Z,49.40
2018-05-08T19:30:29.128Z,49.90
2018-05-08T19:32:56.128Z,49.20
2018-05-08T19:35:28.349Z,49.20
2018-05-08T19:38:03.545Z,49.00
2018-05-08T19:40:30.523Z,48.90
2018-05-08T19:42:56.824Z,48.90
2018-05-08T19:45:23.086Z,48.70
2018-05-08T19:47:49.336Z,48.90
2018-05-08T19:50:15.588Z,48.70
2018-05-08T19:52:41.859Z,48.70
2018-05-08T19:55:08.085Z,48.70
2018-05-08T19:57:34.363Z,48.70
2018-05-08T20:00:01.298Z,48.50
2018-05-08T20:02:27.572Z,48.50
2018-05-08T20:04:53.928Z,48.50
2018-05-08T20:07:20.140Z,48.40
2018-05-08T20:09:46.388Z,48.40
2018-05-08T20:12:12.649Z,48.30
2018-05-08T20:14:38.908Z,48.30
2018-05-08T20:17:05.851Z,48.50
2018-05-08T20:19:32.811Z,48.50
2018-05-08T20:21:59.026Z,48.40
2018-05-08T20:24:26.014Z,48.80
2018-05-08T20:26:52.262Z,48.30
2018-05-08T20:29:18.495Z,48.30
2018-05-08T20:31:44.688Z,48.30
2018-05-08T20:34:11.693Z,48.30
2018-05-08T20:36:38.678Z,48.30
2018-05-08T20:39:04.944Z,48.30
2018-05-08T20:41:31.159Z,48.30
2018-05-08T20:43:57.427Z,48.20
2018-05-08T20:46:23.647Z,48.30
2018-05-08T20:48:49.866Z,48.20
2018-05-08T20:51:16.132Z,48.10
2018-05-08T20:53:42.356Z,48.10
2018-05-08T20:56:08.671Z,48.20
2018-05-08T20:58:35.745Z,48.10
2018-05-08T21:01:02.801Z,48.20
2018-05-08T21:03:29.707Z,48.10
2018-05-08T21:05:56.685Z,48.10
2018-05-08T21:08:22.863Z,48.00
2018-05-08T21:10:49.837Z,48.10
2018-05-08T21:13:16.065Z,48.10
2018-05-08T21:15:42.978Z,48.80
2018-05-08T21:18:09.187Z,48.20
2018-05-08T21:20:35.451Z,48.20
2018-05-08T21:23:01.653Z,48.10
2018-05-08T21:25:27.873Z,48.10
2018-05-08T21:28:00.179Z,48.20
2018-05-08T21:30:32.444Z,48.20
2018-05-08T21:32:59.563Z,48.90
2018-05-08T21:35:26.591Z,48.10
2018-05-08T21:37:52.895Z,48.20
2018-05-08T21:40:19.845Z,48.20
2018-05-08T21:42:46.077Z,48.20
2018-05-08T21:45:13.216Z,48.20
2018-05-08T21:47:39.471Z,48.80
2018-05-08T21:50:06.485Z,48.10
2018-05-08T21:52:33.493Z,48.20
2018-05-08T21:54:59.702Z,48.20
2018-05-08T21:57:26.674Z,48.60
2018-05-08T21:59:52.895Z,48.30
2018-05-08T22:02:19.303Z,48.20
2018-05-08T22:04:46.302Z,50.10
2018-05-08T22:07:12.522Z,50.00
2018-05-08T22:09:39.477Z,50.50
2018-05-08T22:12:05.726Z,50.40
2018-05-08T22:14:31.989Z,50.50
2018-05-08T22:16:58.233Z,50.50
2018-05-08T22:19:24.443Z,50.50
2018-05-08T22:21:50.635Z,50.50
2018-05-08T22:24:16.862Z,50.40
2018-05-08T22:26:43.097Z,50.40
2018-05-08T22:29:09.313Z,50.20
2018-05-08T22:31:35.527Z,50.20
2018-05-08T22:34:01.775Z,50.00
2018-05-08T22:36:28.805Z,49.90
2018-05-08T22:38:55.799Z,49.80
2018-05-08T22:41:22.031Z,49.70
2018-05-08T22:43:48.259Z,49.80
2018-05-08T22:46:14.452Z,49.80
2018-05-08T22:48:40.711Z,49.70
2018-05-08T22:51:07.721Z,49.80
2018-05-08T22:53:33.957Z,49.80
2018-05-08T22:56:00.198Z,49.70
2018-05-08T22:58:26.402Z,49.60
2018-05-08T23:00:52.607Z,49.70
2018-05-08T23:03:19.568Z,49.50
2018-05-08T23:05:45.789Z,49.50
2018-05-08T23:08:12.011Z,49.50
2018-05-08T23:10:38.197Z,49.50
2018-05-08T23:13:05.184Z,49.40
2018-05-08T23:15:31.393Z,49.30
2018-05-08T23:17:57.635Z,49.30
2018-05-08T23:20:24.577Z,49.30
2018-05-08T23:22:51.524Z,49.30
2018-05-08T23:25:17.915Z,49.30
2018-05-08T23:27:44.115Z,49.30
2018-05-08T23:30:10.318Z,49.40
2018-05-08T23:32:37.299Z,49.20
2018-05-08T23:35:04.825Z,49.20
2018-05-08T23:37:31.053Z,49.20
2018-05-08T23:39:57.268Z,49.80
2018-05-08T23:42:23.507Z,49.20
2018-05-08T23:44:50.485Z,49.20
2018-05-08T23:47:16.776Z,49.20
2018-05-08T23:49:43.005Z,49.20
2018-05-08T23:52:09.952Z,49.20
2018-05-08T23:54:36.241Z,49.20
2018-05-08T23:57:02.536Z,49.20
2018-05-08T23:59:29.489Z,49.10
